createdAt,value
2022-10-20T00:00:27.077Z,8.18
2022-10-20T00:03:30.377Z,8.14
2022-10-20T00:06:34.101Z,8.13
2022-10-20T00:09:37.206Z,8.06
2022-10-20T00:12:39.702Z,8.04
2022-10-20T00:15:48.944Z,7.92
2022-10-20T00:18:51.772Z,7.90
2022-10-20T00:21:54.865Z,7.80
2022-10-20T00:24:57.393Z,7.72
2022-10-20T00:28:00.259Z,7.72
2022-10-20T00:31:04.156Z,7.70
2022-10-20T00:34:06.935Z,7.70
2022-10-20T00:37:09.395Z,7.68
2022-10-20T00:40:14.136Z,7.66
2022-10-20T00:43:17.606Z,7.63
2022-10-20T00:46:23.295Z,7.60
2022-10-20T00:49:26.442Z,7.53
2022-10-20T00:52:29.240Z,7.56
2022-10-20T00:55:34.372Z,7.59
2022-10-20T00:58:37.705Z,7.58
2022-10-20T01:01:40.550Z,7.54
2022-10-20T01:04:43.486Z,7.53
2022-10-20T01:07:45.976Z,7.53
2022-10-20T01:11:15.691Z,7.49
2022-10-20T01:14:55.065Z,7.46
2022-10-20T01:18:15.688Z,7.40
2022-10-20T01:21:51.442Z,7.37
2022-10-20T01:25:31.537Z,7.33
2022-10-20T01:28:43.461Z,7.32
2022-10-20T01:31:53.936Z,7.27
2022-10-20T01:35:05.427Z,7.14
2022-10-20T01:38:21.088Z,7.07
2022-10-20T01:41:47.426Z,7.03
2022-10-20T01:44:52.170Z,6.99
2022-10-20T01:47:55.064Z,7.01
2022-10-20T01:51:01.687Z,6.93
2022-10-20T01:54:04.269Z,6.92
2022-10-20T01:57:17.203Z,6.87
2022-10-20T02:00:20.111Z,6.79
2022-10-20T02:03:44.408Z,6.74
2022-10-20T02:07:15.728Z,6.72
2022-10-20T02:10:21.659Z,6.72
2022-10-20T02:13:25.822Z,6.62
2022-10-20T02:16:32.924Z,6.60
2022-10-20T02:19:39.861Z,6.46
2022-10-20T02:22:43.625Z,6.48
2022-10-20T02:25:49.935Z,6.44
2022-10-20T02:28:57.079Z,6.41
2022-10-20T02:31:59.815Z,6.31
2022-10-20T02:35:08.197Z,6.22
2022-10-20T02:38:10.756Z,6.28
2022-10-20T02:41:14.064Z,6.27
2022-10-20T02:44:16.532Z,6.30
2022-10-20T02:47:21.113Z,6.29
2022-10-20T02:50:24.823Z,6.23
2022-10-20T02:53:27.987Z,6.19
2022-10-20T02:56:31.162Z,6.11
2022-10-20T02:59:40.139Z,6.07
2022-10-20T03:02:42.711Z,6.03
2022-10-20T03:05:46.970Z,6.02
2022-10-20T03:08:56.745Z,6.07
2022-10-20T03:11:59.821Z,6.02
2022-10-20T03:15:02.359Z,5.91
2022-10-20T03:18:05.402Z,5.90
2022-10-20T03:21:09.321Z,5.92
2022-10-20T03:24:15.933Z,5.89
2022-10-20T03:27:18.397Z,5.83
2022-10-20T03:30:21.332Z,5.84
2022-10-20T03:33:24.967Z,5.87
2022-10-20T03:36:27.722Z,5.86
2022-10-20T03:39:30.247Z,5.79
2022-10-20T03:42:33.342Z,5.70
2022-10-20T03:45:39.836Z,5.74
2022-10-20T03:48:45.810Z,5.69
2022-10-20T03:51:48.310Z,5.68
2022-10-20T03:54:51.294Z,5.65
2022-10-20T03:57:53.816Z,5.67
2022-10-20T04:01:01.345Z,5.63
2022-10-20T04:04:18.876Z,5.60
2022-10-20T04:07:21.413Z,5.59
2022-10-20T04:10:27.913Z,5.50
2022-10-20T04:13:31.990Z,5.48
2022-10-20T04:16:37.342Z,5.48
2022-10-20T04:19:39.959Z,5.50
2022-10-20T04:22:42.764Z,5.40
2022-10-20T04:25:48.392Z,5.42
2022-10-20T04:28:51.382Z,5.35
2022-10-20T04:31:54.018Z,5.36
2022-10-20T04:34:56.857Z,5.29
2022-10-20T04:37:59.360Z,5.27
2022-10-20T04:41:04.673Z,5.29
2022-10-20T04:44:07.180Z,5.33
2022-10-20T04:47:12.933Z,5.29
2022-10-20T04:50:16.072Z,5.28
2022-10-20T04:53:33.535Z,5.28
2022-10-20T04:56:35.990Z,5.29
2022-10-20T04:59:38.798Z,5.29
2022-10-20T05:02:41.257Z,5.26
2022-10-20T05:05:44.060Z,5.27
2022-10-20T05:08:48.499Z,5.25
2022-10-20T05:11:51.549Z,5.21
2022-10-20T05:14:54.138Z,5.16
2022-10-20T05:17:58.068Z,5.18
2022-10-20T05:21:17.522Z,5.17
2022-10-20T05:24:22.095Z,5.16
2022-10-20T05:27:26.352Z,5.15
2022-10-20T05:30:38.503Z,5.18
2022-10-20T05:33:51.849Z,5.18
2022-10-20T05:36:54.644Z,5.21
2022-10-20T05:39:57.150Z,5.21
2022-10-20T05:43:00.090Z,5.19
2022-10-20T05:46:03.302Z,5.27
2022-10-20T05:49:06.067Z,5.27
2022-10-20T05:52:11.733Z,5.33
2022-10-20T05:55:14.584Z,5.33
2022-10-20T05:58:19.686Z,5.40
2022-10-20T06:01:39.671Z,5.46
2022-10-20T06:04:42.521Z,5.50
2022-10-20T06:07:45.016Z,5.52
2022-10-20T06:10:48.143Z,5.64
2022-10-20T06:13:52.936Z,5.74
2022-10-20T06:16:56.827Z,5.83
2022-10-20T06:19:59.446Z,5.90
2022-10-20T06:23:02.264Z,6.03
2022-10-20T06:26:10.695Z,6.09
2022-10-20T06:29:17.148Z,6.09
2022-10-20T06:32:19.690Z,6.12
2022-10-20T06:35:22.518Z,6.17
2022-10-20T06:38:24.975Z,6.29
2022-10-20T06:41:29.622Z,6.43
2022-10-20T06:44:32.100Z,6.55
2022-10-20T06:47:35.341Z,6.62
2022-10-20T06:50:40.282Z,6.75
2022-10-20T06:53:46.529Z,6.82
2022-10-20T06:56:49.495Z,6.95
2022-10-20T06:59:52.489Z,7.04
2022-10-20T07:02:54.994Z,7.18
2022-10-20T07:05:58.209Z,7.27
2022-10-20T07:09:03.917Z,7.39
2022-10-20T07:12:06.767Z,7.40
2022-10-20T07:15:09.756Z,7.58
2022-10-20T07:18:13.058Z,7.64
2022-10-20T07:21:22.112Z,7.76
2022-10-20T07:24:25.162Z,7.97
2022-10-20T07:27:27.727Z,8.18
2022-10-20T07:30:39.941Z,8.31
2022-10-20T07:33:42.518Z,8.50
2022-10-20T07:36:45.560Z,8.68
2022-10-20T07:39:48.236Z,8.82
2022-10-20T07:42:51.104Z,8.96
2022-10-20T07:45:53.607Z,9.09
2022-10-20T07:49:02.685Z,9.28
2022-10-20T07:52:16.480Z,9.38
2022-10-20T07:55:37.747Z,9.48
2022-10-20T07:58:42.226Z,9.66
2022-10-20T08:01:45.061Z,9.79
2022-10-20T08:04:47.919Z,9.93
2022-10-20T08:07:50.456Z,10.03
2022-10-20T08:10:58.825Z,10.18
2022-10-20T08:14:01.371Z,10.39
2022-10-20T08:17:04.536Z,10.54
2022-10-20T08:20:23.600Z,10.68
2022-10-20T08:23:29.213Z,10.82
2022-10-20T08:26:31.709Z,10.98
2022-10-20T08:29:34.450Z,11.16
2022-10-20T08:32:37.739Z,11.27
2022-10-20T08:35:40.626Z,11.46
2022-10-20T08:38:43.852Z,11.63
2022-10-20T08:42:06.860Z,11.79
2022-10-20T08:45:19.603Z,11.95
2022-10-20T08:48:24.928Z,12.14
2022-10-20T08:51:31.913Z,12.24
2022-10-20T08:54:34.804Z,12.39
2022-10-20T08:57:37.393Z,12.56
2022-10-20T09:00:43.999Z,12.64
2022-10-20T09:03:50.110Z,12.81
2022-10-20T09:07:00.443Z,13.02
2022-10-20T09:10:32.417Z,13.17
2022-10-20T09:13:37.138Z,13.33
2022-10-20T09:16:58.596Z,13.49
2022-10-20T09:20:02.929Z,13.60
2022-10-20T09:23:16.676Z,13.73
2022-10-20T09:26:54.124Z,13.90
2022-10-20T09:29:57.391Z,14.01
2022-10-20T09:33:01.179Z,14.09
2022-10-20T09:36:18.251Z,14.25
2022-10-20T09:39:27.418Z,14.25
2022-10-20T09:42:37.725Z,14.34
2022-10-20T09:45:53.971Z,14.46
2022-10-20T09:48:58.458Z,14.63
2022-10-20T09:52:03.246Z,14.66
2022-10-20T09:55:17.759Z,14.81
2022-10-20T09:58:26.498Z,14.92
2022-10-20T10:01:29.387Z,14.89
2022-10-20T10:04:38.368Z,14.96
2022-10-20T10:07:40.890Z,15.04
2022-10-20T10:10:46.776Z,15.07
2022-10-20T10:13:50.947Z,15.15
2022-10-20T10:16:53.766Z,15.14
2022-10-20T10:19:56.530Z,15.20
2022-10-20T10:23:21.470Z,15.24
2022-10-20T10:26:37.602Z,15.15
2022-10-20T10:29:40.388Z,15.20
2022-10-20T10:32:47.605Z,15.28
2022-10-20T10:35:50.464Z,15.40
2022-10-20T10:38:54.010Z,15.39
2022-10-20T10:42:25.836Z,15.44
2022-10-20T10:45:44.879Z,15.35
2022-10-20T10:49:21.714Z,15.24
2022-10-20T10:52:39.357Z,15.34
2022-10-20T10:59:17.133Z,15.43
2022-10-20T11:02:23.309Z,15.34
2022-10-20T11:05:32.029Z,15.34
2022-10-20T11:08:55.333Z,15.22
2022-10-20T11:12:26.325Z,15.27
2022-10-20T11:15:47.664Z,15.24
2022-10-20T11:19:14.832Z,15.12
2022-10-20T11:22:36.462Z,15.00
2022-10-20T11:25:41.266Z,15.01
2022-10-20T11:28:47.102Z,15.11
2022-10-20T11:32:25.662Z,15.10
2022-10-20T11:35:40.621Z,15.11
2022-10-20T11:38:57.368Z,15.17
2022-10-20T11:42:10.539Z,15.24
2022-10-20T11:45:42.240Z,15.20
2022-10-20T11:48:51.811Z,15.25
2022-10-20T11:51:54.909Z,15.26
2022-10-20T11:55:08.096Z,15.23
2022-10-20T11:58:26.828Z,15.28
2022-10-20T12:01:52.273Z,15.28
2022-10-20T12:05:06.780Z,15.44
2022-10-20T12:08:37.699Z,15.57
2022-10-20T12:11:57.330Z,15.72
2022-10-20T12:15:01.766Z,15.78
2022-10-20T12:18:05.996Z,15.78
2022-10-20T12:21:11.264Z,15.79
2022-10-20T12:24:34.352Z,15.65
2022-10-20T12:27:36.858Z,15.60
2022-10-20T12:30:43.653Z,15.70
2022-10-20T12:34:04.365Z,15.83
2022-10-20T12:37:24.390Z,16.04
2022-10-20T12:40:45.091Z,16.01
2022-10-20T12:43:50.325Z,16.06
2022-10-20T12:46:59.667Z,15.97
2022-10-20T12:50:39.771Z,15.90
2022-10-20T12:53:42.344Z,15.91
2022-10-20T12:56:45.528Z,15.81
2022-10-20T12:59:48.295Z,15.90
2022-10-20T13:02:52.671Z,15.62
2022-10-20T13:05:55.203Z,15.69
2022-10-20T13:09:04.264Z,15.85
2022-10-20T13:12:25.477Z,16.00
2022-10-20T13:15:33.051Z,16.10
2022-10-20T13:18:38.694Z,16.19
2022-10-20T13:21:43.281Z,16.21
2022-10-20T13:24:48.872Z,16.28
2022-10-20T13:27:51.760Z,16.33
2022-10-20T13:31:24.663Z,16.26
2022-10-20T13:34:36.225Z,16.32
2022-10-20T13:37:57.155Z,16.36
2022-10-20T13:41:07.707Z,16.24
2022-10-20T13:44:22.616Z,16.19
2022-10-20T13:48:00.835Z,16.18
2022-10-20T13:51:13.300Z,16.21
2022-10-20T13:54:25.486Z,16.20
2022-10-20T13:57:30.877Z,16.15
2022-10-20T14:00:36.219Z,16.13
2022-10-20T14:03:46.996Z,16.08
2022-10-20T14:06:49.498Z,16.07
2022-10-20T14:09:59.101Z,15.89
2022-10-20T14:13:02.807Z,15.93
2022-10-20T14:16:07.473Z,15.79
2022-10-20T14:19:13.724Z,15.80
2022-10-20T14:22:25.420Z,15.71
2022-10-20T14:25:28.638Z,15.67
2022-10-20T14:28:33.823Z,15.62
2022-10-20T14:31:36.456Z,15.45
2022-10-20T14:34:54.885Z,15.43
2022-10-20T14:37:59.478Z,15.42
2022-10-20T14:41:06.727Z,15.35
2022-10-20T14:44:30.114Z,15.24
2022-10-20T14:47:39.357Z,15.15
2022-10-20T14:50:48.287Z,15.10
2022-10-20T14:53:51.071Z,14.96
2022-10-20T14:56:58.164Z,14.88
2022-10-20T15:00:22.435Z,14.80
2022-10-20T15:03:25.054Z,14.71
2022-10-20T15:06:28.003Z,14.66
2022-10-20T15:09:32.803Z,14.58
2022-10-20T15:12:41.278Z,14.49
2022-10-20T15:15:43.845Z,14.41
2022-10-20T15:18:46.631Z,14.30
2022-10-20T15:21:58.392Z,14.20
2022-10-20T15:25:01.186Z,14.08
2022-10-20T15:28:03.910Z,13.94
2022-10-20T15:31:22.150Z,13.83
2022-10-20T15:34:25.591Z,13.72
2022-10-20T15:37:28.367Z,13.61
2022-10-20T15:40:35.528Z,13.46
2022-10-20T15:43:38.295Z,13.34
2022-10-20T15:46:42.140Z,13.20
2022-10-20T15:49:45.829Z,13.06
2022-10-20T15:52:48.471Z,12.94
2022-10-20T15:55:51.796Z,12.80
2022-10-20T15:58:54.471Z,12.70
2022-10-20T16:01:57.330Z,12.58
2022-10-20T16:05:00.081Z,12.51
2022-10-20T16:08:02.769Z,12.38
2022-10-20T16:11:06.896Z,12.28
2022-10-20T16:14:29.248Z,12.17
2022-10-20T16:17:52.063Z,12.06
2022-10-20T16:21:14.549Z,11.90
2022-10-20T16:24:37.277Z,11.78
2022-10-20T16:27:59.616Z,11.66
2022-10-20T16:31:22.265Z,11.46
2022-10-20T16:34:25.641Z,11.41
2022-10-20T16:37:30.329Z,11.33
2022-10-20T16:40:33.003Z,11.25
2022-10-20T16:43:40.364Z,11.17
2022-10-20T16:46:42.914Z,11.04
2022-10-20T16:49:45.690Z,10.97
2022-10-20T16:52:48.182Z,10.90
2022-10-20T16:55:55.656Z,10.83
2022-10-20T16:58:58.499Z,10.79
2022-10-20T17:02:01.288Z,10.72
2022-10-20T17:05:08.206Z,10.61
2022-10-20T17:08:12.442Z,10.55
2022-10-20T17:11:20.743Z,10.48
2022-10-20T17:14:23.569Z,10.40
2022-10-20T17:17:26.197Z,10.29
2022-10-20T17:20:32.391Z,10.15
2022-10-20T17:23:40.131Z,10.12
2022-10-20T17:26:45.716Z,9.94
2022-10-20T17:29:48.252Z,9.92
2022-10-20T17:32:51.059Z,9.89
2022-10-20T17:35:57.728Z,9.81
2022-10-20T17:39:03.925Z,9.71
2022-10-20T17:42:06.680Z,9.67
2022-10-20T17:45:10.036Z,9.58
2022-10-20T17:48:14.213Z,9.48
2022-10-20T17:51:22.091Z,9.40
2022-10-20T17:54:24.939Z,9.35
2022-10-20T17:57:30.113Z,9.25
2022-10-20T18:00:54.638Z,9.22
2022-10-20T18:04:01.724Z,9.09
2022-10-20T18:07:04.759Z,9.02
2022-10-20T18:10:08.912Z,8.95
2022-10-20T18:13:11.810Z,8.94
2022-10-20T18:16:18.053Z,8.90
2022-10-20T18:19:21.041Z,8.83
2022-10-20T18:22:24.084Z,8.83
2022-10-20T18:25:26.890Z,8.77
2022-10-20T18:28:30.061Z,8.71
2022-10-20T18:31:34.271Z,8.72
2022-10-20T18:34:38.605Z,8.69
2022-10-20T18:37:42.493Z,8.67
2022-10-20T18:40:45.554Z,8.63
2022-10-20T18:43:58.009Z,8.62
2022-10-20T18:47:01.302Z,8.56
2022-10-20T18:50:04.205Z,8.48
2022-10-20T18:53:07.360Z,8.46
2022-10-20T18:56:18.051Z,8.42
2022-10-20T18:59:22.884Z,8.41
2022-10-20T19:02:28.417Z,8.35
2022-10-20T19:05:31.427Z,8.31
2022-10-20T19:08:38.393Z,8.25
2022-10-20T19:11:42.078Z,8.18
2022-10-20T19:14:44.822Z,8.17
2022-10-20T19:17:47.794Z,8.11
2022-10-20T19:21:01.952Z,8.11
2022-10-20T19:24:08.715Z,8.12
2022-10-20T19:27:27.536Z,8.09
2022-10-20T19:30:34.261Z,8.05
2022-10-20T19:33:37.034Z,8.01
2022-10-20T19:36:42.605Z,7.98
2022-10-20T19:39:45.768Z,7.96
2022-10-20T19:42:48.864Z,7.89
2022-10-20T19:45:51.536Z,7.86
2022-10-20T19:48:55.483Z,7.85
2022-10-20T19:51:59.585Z,7.82
2022-10-20T19:55:02.552Z,7.79
2022-10-20T19:58:05.308Z,7.76
2022-10-20T20:01:09.330Z,7.78
2022-10-20T20:04:12.468Z,7.77
2022-10-20T20:07:15.234Z,7.74
2022-10-20T20:10:18.198Z,7.73
2022-10-20T20:13:21.375Z,7.71
2022-10-20T20:16:24.972Z,7.71
2022-10-20T20:19:27.678Z,7.65
2022-10-20T20:22:30.656Z,7.64
2022-10-20T20:25:40.332Z,7.62
2022-10-20T20:28:43.158Z,7.62
2022-10-20T20:31:45.658Z,7.60
2022-10-20T20:34:48.508Z,7.57
2022-10-20T20:37:50.985Z,7.51
2022-10-20T20:40:57.008Z,7.46
2022-10-20T20:44:04.164Z,7.43
2022-10-20T20:47:09.836Z,7.42
2022-10-20T20:50:12.713Z,7.38
2022-10-20T20:53:15.490Z,7.32
2022-10-20T20:56:21.680Z,7.29
2022-10-20T20:59:26.182Z,7.23
2022-10-20T21:02:28.668Z,7.17
2022-10-20T21:05:31.444Z,7.14
2022-10-20T21:08:38.324Z,7.15
2022-10-20T21:11:42.948Z,7.17
2022-10-20T21:14:47.944Z,7.19
2022-10-20T21:17:53.600Z,7.20
2022-10-20T21:20:56.128Z,7.21
2022-10-20T21:24:00.283Z,7.21
2022-10-20T21:27:02.906Z,7.23
2022-10-20T21:30:05.945Z,7.22
2022-10-20T21:33:08.417Z,7.23
2022-10-20T21:36:16.035Z,7.22
2022-10-20T21:39:18.636Z,7.22
2022-10-20T21:42:21.508Z,7.24
2022-10-20T21:45:23.985Z,7.20
2022-10-20T21:48:26.899Z,7.22
2022-10-20T21:51:37.915Z,7.17
2022-10-20T21:54:40.818Z,7.21
2022-10-20T21:57:43.333Z,7.17
2022-10-20T22:00:46.207Z,7.15
2022-10-20T22:03:50.124Z,7.15
2022-10-20T22:06:52.779Z,7.14
2022-10-20T22:09:55.587Z,7.16
2022-10-20T22:12:58.010Z,7.13
2022-10-20T22:16:01.225Z,7.12
2022-10-20T22:19:11.736Z,7.10
2022-10-20T22:22:14.594Z,7.10
2022-10-20T22:25:17.059Z,7.05
2022-10-20T22:28:19.834Z,7.03
2022-10-20T22:31:23.249Z,7.03
2022-10-20T22:34:26.020Z,7.03
2022-10-20T22:37:28.534Z,6.98
2022-10-20T22:40:31.381Z,6.98
2022-10-20T22:43:36.321Z,6.93
2022-10-20T22:46:39.170Z,6.92
2022-10-20T22:49:41.644Z,6.84
2022-10-20T22:52:44.486Z,6.80
2022-10-20T22:55:47.415Z,6.76
2022-10-20T22:58:52.186Z,6.73
2022-10-20T23:01:54.725Z,6.69
2022-10-20T23:04:57.522Z,6.67
2022-10-20T23:08:00.018Z,6.65
2022-10-20T23:11:02.962Z,6.59
2022-10-20T23:14:05.435Z,6.55
2022-10-20T23:17:08.252Z,6.51
2022-10-20T23:20:11.265Z,6.48
2022-10-20T23:23:14.184Z,6.48
2022-10-20T23:26:16.723Z,6.43
2022-10-20T23:29:19.565Z,6.40
2022-10-20T23:32:22.008Z,6.37
2022-10-20T23:35:24.808Z,6.36
2022-10-20T23:38:27.467Z,6.31
2022-10-20T23:41:30.675Z,6.26
2022-10-20T23:44:33.151Z,6.27
2022-10-20T23:47:36.308Z,6.22
2022-10-20T23:50:39.162Z,6.21
2022-10-20T23:53:41.993Z,6.17
2022-10-20T23:56:44.482Z,6.19
2022-10-20T23:59:47.269Z,6.09
